Time;durP1;ratioP1;P1;durP2;ratioP2;P2;SDS_P1;SDS_P2;PMS_P1;PMS_P2;Temp;Humidity;BMP_temperature;BMP_pressure;BME280_temperature;BME280_humidity;BME280_pressure;Samples;Min_cycle;Max_cycle;Signal;HPM_P1;HPM_P2
2022/02/06 00:05:31;;;;;;;14.33;4.48;;;;;;;5.06;83.11;99808.41;713304;1176;115330;-78
2022/02/06 00:20:39;;;;;;;14.43;4.83;;;;;;;4.96;82.58;99784.02;713301;1175;114442;-77
2022/02/06 00:50:50;;;;;;;11.20;6.08;;;;;;;4.82;82.19;99739.06;713426;1176;113860;-80
2022/02/06 01:05:53;;;;;;;13.55;7.50;;;;;;;4.80;83.75;99708.93;713270;1175;115119;-78
2022/02/06 01:21:04;;;;;;;19.38;7.43;;;;;;;4.66;83.53;99674.39;714302;1176;114546;-78
2022/02/06 01:37:04;;;;;;;13.13;6.20;;;;;;;4.50;84.37;99638.31;713572;1175;114422;-79
2022/02/06 03:07:47;;;;;;;12.75;6.05;;;;;;;4.19;87.11;99493.48;713108;1176;115020;-78
2022/02/06 03:22:53;;;;;;;11.70;6.23;;;;;;;4.23;87.71;99455.97;713136;1177;114305;-77
2022/02/06 03:37:55;;;;;;;12.23;6.28;;;;;;;4.33;88.23;99421.40;713158;1176;113654;-78
2022/02/06 03:52:57;;;;;;;10.45;5.50;;;;;;;4.31;88.18;99406.88;713079;1177;115124;-76
2022/02/06 04:07:59;;;;;;;12.13;5.28;;;;;;;4.40;88.46;99381.98;713209;1177;114563;-76
2022/02/06 04:23:01;;;;;;;12.08;6.15;;;;;;;4.49;89.33;99356.12;713533;1177;114419;-76
2022/02/06 04:53:59;;;;;;;11.23;6.60;;;;;;;4.64;91.64;99289.14;713056;1177;113392;-78
2022/02/06 05:39:42;;;;;;;8.07;5.03;;;;;;;4.50;96.47;99204.53;713241;1177;114669;-77
2022/02/06 05:54:44;;;;;;;7.37;4.77;;;;;;;4.39;99.03;99177.77;713468;1176;113652;-77
2022/02/06 06:09:47;;;;;;;9.07;5.37;;;;;;;4.39;100.00;99172.58;713510;1175;113597;-78
2022/02/06 06:24:56;;;;;;;8.50;6.05;;;;;;;4.56;100.00;99142.65;712950;1176;114604;-78
2022/02/06 06:39:58;;;;;;;72.78;29.90;;;;;;;4.50;100.00;99129.20;713050;1177;114540;-78
2022/02/06 06:55:03;;;;;;;104.30;46.73;;;;;;;4.45;100.00;99102.78;713159;1177;114710;-78
2022/02/06 07:10:06;;;;;;;13.27;9.77;;;;;;;4.44;100.00;99072.56;713170;1175;115652;-79
2022/02/06 07:25:08;;;;;;;14.50;11.60;;;;;;;4.36;100.00;99059.39;713768;1177;115535;-78
2022/02/06 07:53:01;;;;;;;12.80;7.83;;;;;;;4.38;100.00;99008.16;714929;1167;35278;-78
2022/02/06 08:08:11;;;;;;;9.45;5.98;;;;;;;4.41;100.00;98989.72;715248;1174;114992;-78
2022/02/06 08:23:14;;;;;;;11.33;6.60;;;;;;;4.43;100.00;98987.00;714262;1174;115002;-76
2022/02/06 08:38:16;;;;;;;12.57;8.73;;;;;;;4.68;100.00;98959.78;715588;1174;113652;-80
2022/02/06 08:53:22;;;;;;;10.67;7.17;;;;;;;4.90;100.00;98934.59;716803;1174;113654;-81
2022/02/06 09:08:24;;;;;;;14.00;9.90;;;;;;;5.18;100.00;98934.80;716147;1174;113745;-83
2022/02/06 09:23:27;;;;;;;18.33;9.87;;;;;;;5.31;100.00;98910.17;715410;1174;114132;-83
2022/02/06 09:38:30;;;;;;;18.97;9.50;;;;;;;5.60;100.00;98888.55;714956;1174;113646;-83
2022/02/06 09:53:35;;;;;;;13.53;9.23;;;;;;;5.65;100.00;98859.54;714696;1174;114161;-83
2022/02/06 10:08:40;;;;;;;64.23;32.77;;;;;;;5.86;100.00;98837.72;714816;1174;113553;-74
2022/02/06 10:23:58;;;;;;;35.33;20.78;;;;;;;6.00;100.00;98816.48;714467;1174;114042;-74
2022/02/06 10:39:03;;;;;;;14.87;9.93;;;;;;;6.11;100.00;98797.25;714163;1174;115387;-77
2022/02/06 10:54:14;;;;;;;17.93;8.70;;;;;;;6.09;100.00;98796.59;714726;1174;115495;-75
2022/02/06 11:09:25;;;;;;;12.83;8.40;;;;;;;6.13;100.00;98757.09;714414;1174;114779;-76
2022/02/06 11:24:28;;;;;;;15.55;8.80;;;;;;;6.12;100.00;98752.03;714546;1174;114025;-76
2022/02/06 11:55:01;;;;;;;81.50;47.83;;;;;;;6.19;100.00;98701.03;714994;1174;113978;-76
2022/02/06 12:10:04;;;;;;;53.63;21.73;;;;;;;6.23;100.00;98701.53;716020;1174;114540;-76
2022/02/06 12:25:31;;;;;;;23.07;11.40;;;;;;;6.37;100.00;98692.41;714642;1174;115415;-75
2022/02/06 12:40:34;;;;;;;24.40;13.45;;;;;;;6.50;100.00;98662.41;714268;1174;115243;-77
2022/02/06 12:55:37;;;;;;;11.70;8.00;;;;;;;6.36;100.00;98641.28;715254;1174;114462;-88
2022/02/06 13:11:11;;;;;;;15.05;9.80;;;;;;;6.54;100.00;98607.42;715728;1174;115498;-89
2022/02/06 13:26:24;;;;;;;10.10;6.55;;;;;;;6.64;100.00;98587.32;715144;1174;113882;-76
2022/02/06 13:41:32;;;;;;;11.05;7.30;;;;;;;6.68;100.00;98559.98;714709;1174;114430;-81
2022/02/06 13:56:35;;;;;;;;;;;;;;;6.82;100.00;98553.38;715542;1174;113873;-81
2022/02/06 14:11:39;;;;;;;16.87;11.53;;;;;;;6.82;100.00;98520.33;714958;1174;99856;-82
2022/02/06 14:27:03;;;;;;;13.18;9.80;;;;;;;6.87;100.00;98506.82;714342;1174;115315;-81
2022/02/06 14:42:13;;;;;;;16.08;10.18;;;;;;;7.02;100.00;98491.44;715287;1173;114466;-82
2022/02/06 14:57:16;;;;;;;17.67;11.87;;;;;;;7.12;100.00;98471.24;716091;1174;113901;-84
2022/02/06 15:12:19;;;;;;;13.28;8.80;;;;;;;7.07;100.00;98423.95;717182;1174;115332;-78
2022/02/06 15:27:21;;;;;;;15.25;10.90;;;;;;;7.12;100.00;98385.19;714282;1174;114726;-76
2022/02/06 15:42:24;;;;;;;15.17;9.87;;;;;;;7.09;100.00;98333.37;714941;1173;115365;-76
2022/02/06 15:57:26;;;;;;;24.07;10.97;;;;;;;7.09;100.00;98302.08;714627;1174;114828;-77
2022/02/06 16:12:28;;;;;;;15.30;9.50;;;;;;;7.09;100.00;98251.73;714317;1174;113892;-76
2022/02/06 16:27:31;;;;;;;14.90;9.27;;;;;;;6.99;100.00;98247.50;714310;1174;113889;-75
2022/02/06 16:42:33;;;;;;;14.38;9.43;;;;;;;7.12;100.00;98213.09;714553;1174;113873;-76
2022/02/06 16:57:36;;;;;;;14.05;8.40;;;;;;;7.14;100.00;98184.27;714392;1174;114691;-77
2022/02/06 17:12:38;;;;;;;17.70;12.50;;;;;;;7.22;100.00;98159.95;716627;1174;114381;-82
2022/02/06 17:27:41;;;;;;;14.27;11.10;;;;;;;7.22;100.00;98111.23;715016;1174;115420;-76
2022/02/06 17:42:45;;;;;;;12.93;9.17;;;;;;;7.28;100.00;98081.85;715124;1174;115536;-80
2022/02/06 17:57:47;;;;;;;9.75;7.20;;;;;;;7.35;100.00;98037.68;716219;1174;115074;-81
2022/02/06 18:12:49;;;;;;;13.10;7.75;;;;;;;7.33;100.00;97990.88;714557;1174;114526;-74
2022/02/06 18:27:52;;;;;;;47.68;21.38;;;;;;;7.37;100.00;97957.45;714173;1174;116000;-75
2022/02/06 18:42:54;;;;;;;14.78;8.80;;;;;;;7.20;100.00;97932.45;714682;1174;114751;-74
2022/02/06 18:57:56;;;;;;;11.45;6.85;;;;;;;7.14;100.00;97913.09;714304;1174;115375;-77
2022/02/06 19:13:00;;;;;;;11.83;6.73;;;;;;;7.05;100.00;97859.34;714703;1174;113855;-76
2022/02/06 19:28:02;;;;;;;8.95;5.68;;;;;;;6.92;100.00;97832.05;714201;1174;116146;-75
2022/02/06 19:43:06;;;;;;;9.45;5.68;;;;;;;6.73;100.00;97828.09;714365;1174;114383;-75
2022/02/06 19:58:08;;;;;;;11.08;5.70;;;;;;;6.72;100.00;97795.19;713945;1174;115130;-74
2022/02/06 20:13:10;;;;;;;6.93;4.73;;;;;;;6.57;100.00;97756.04;713515;1174;115390;-76
2022/02/06 20:28:13;;;;;;;6.05;4.33;;;;;;;6.49;100.00;97727.41;713994;1174;114244;-76
2022/02/06 20:43:16;;;;;;;8.15;5.23;;;;;;;6.49;100.00;97696.98;715129;1174;113612;-75
2022/02/06 20:58:18;;;;;;;6.80;3.85;;;;;;;6.27;100.00;97677.73;714383;1174;114846;-74
2022/02/06 21:13:20;;;;;;;6.80;3.93;;;;;;;6.26;100.00;97641.46;715366;1174;113997;-79
2022/02/06 21:28:24;;;;;;;5.95;4.00;;;;;;;6.14;100.00;97615.81;715971;1174;114424;-81
2022/02/06 21:43:28;;;;;;;7.30;4.20;;;;;;;6.25;100.00;97600.78;715549;1174;114511;-81
2022/02/06 21:58:36;;;;;;;10.83;5.83;;;;;;;6.35;100.00;97593.56;715085;1174;115180;-79
2022/02/06 22:29:03;;;;;;;26.45;11.60;;;;;;;6.15;100.00;97593.21;714089;1174;115000;-79
2022/02/06 22:44:10;;;;;;;18.33;7.80;;;;;;;6.11;100.00;97610.95;714505;1174;115074;-80
2022/02/06 22:59:13;;;;;;;5.60;4.00;;;;;;;6.10;100.00;97627.55;713491;1174;113879;-80
2022/02/06 23:14:15;;;;;;;17.08;7.70;;;;;;;6.28;100.00;97647.30;713151;1174;113683;-81
2022/02/06 23:29:18;;;;;;;8.93;4.00;;;;;;;6.38;100.00;97671.32;713712;1174;114190;-80
2022/02/06 23:44:20;;;;;;;6.05;2.60;;;;;;;6.33;100.00;97721.33;713719;1174;113678;-81
2022/02/06 23:59:44;;;;;;;6.43;2.57;;;;;;;6.31;100.00;97751.13;714073;1174;114912;-81
